createdAt,value
2023-04-19T00:00:09.675Z,8.10
2023-04-19T00:02:37.901Z,8.10
2023-04-19T00:05:06.991Z,8.20
2023-04-19T00:07:35.019Z,8.10
2023-04-19T00:10:03.468Z,8.10
2023-04-19T00:12:31.516Z,8.20
2023-04-19T00:15:00.841Z,8.20
2023-04-19T00:17:29.188Z,8.20
2023-04-19T00:19:58.088Z,8.20
2023-04-19T00:22:26.176Z,8.20
2023-04-19T00:24:54.287Z,8.20
2023-04-19T00:27:22.385Z,8.20
2023-04-19T00:29:50.320Z,8.20
2023-04-19T00:32:19.611Z,8.20
2023-04-19T00:34:47.534Z,8.30
2023-04-19T00:37:15.670Z,9.00
2023-04-19T00:39:43.800Z,8.30
2023-04-19T00:42:11.768Z,10.10
2023-04-19T00:44:39.796Z,8.20
2023-04-19T00:47:08.052Z,8.20
2023-04-19T00:49:38.390Z,8.20
2023-04-19T00:52:07.157Z,8.60
2023-04-19T00:54:35.359Z,8.40
2023-04-19T00:57:03.600Z,8.20
2023-04-19T00:59:32.545Z,8.20
2023-04-19T01:02:00.729Z,8.10
2023-04-19T01:04:29.044Z,8.10
2023-04-19T01:06:58.525Z,8.10
2023-04-19T01:09:26.534Z,8.10
2023-04-19T01:11:54.532Z,8.40
2023-04-19T01:14:22.528Z,8.10
2023-04-19T01:16:50.722Z,8.10
2023-04-19T01:19:18.825Z,8.40
2023-04-19T01:21:47.077Z,8.10
2023-04-19T01:24:16.671Z,8.10
2023-04-19T01:26:44.941Z,8.00
2023-04-19T01:29:13.033Z,9.30
2023-04-19T01:31:41.149Z,8.40
2023-04-19T01:34:09.313Z,8.00
2023-04-19T01:36:37.313Z,9.10
2023-04-19T01:39:05.303Z,8.90
2023-04-19T01:41:34.939Z,7.90
2023-04-19T01:44:03.094Z,8.20
2023-04-19T01:46:31.201Z,8.90
2023-04-19T01:48:59.205Z,8.00
2023-04-19T01:51:27.446Z,8.30
2023-04-19T01:53:55.444Z,7.50
2023-04-19T01:56:23.420Z,7.40
2023-04-19T01:58:52.908Z,7.40
2023-04-19T02:01:21.299Z,7.30
2023-04-19T02:03:49.461Z,8.70
2023-04-19T02:06:17.690Z,7.80
2023-04-19T02:08:45.729Z,7.50
2023-04-19T02:11:15.501Z,7.10
2023-04-19T02:13:43.861Z,7.00
2023-04-19T02:16:13.335Z,7.00
2023-04-19T02:18:41.615Z,6.90
2023-04-19T02:21:11.171Z,7.80
2023-04-19T02:23:39.329Z,6.80
2023-04-19T02:26:07.451Z,6.80
2023-04-19T02:28:35.721Z,6.70
2023-04-19T02:31:06.151Z,6.70
2023-04-19T02:33:35.621Z,6.60
2023-04-19T02:36:03.848Z,6.50
2023-04-19T02:38:31.843Z,6.40
2023-04-19T02:41:00.852Z,6.40
2023-04-19T02:43:28.819Z,6.20
2023-04-19T02:45:56.943Z,6.20
2023-04-19T02:48:24.884Z,6.10
2023-04-19T02:50:54.544Z,6.00
2023-04-19T02:53:22.545Z,6.00
2023-04-19T02:55:50.740Z,5.90
2023-04-19T02:58:18.765Z,5.80
2023-04-19T03:00:46.808Z,5.80
2023-04-19T03:03:14.847Z,5.80
2023-04-19T03:05:42.944Z,5.70
2023-04-19T03:08:12.326Z,5.60
2023-04-19T03:10:40.361Z,5.50
2023-04-19T03:13:08.442Z,7.80
2023-04-19T03:15:36.585Z,7.10
2023-04-19T03:18:04.958Z,7.10
2023-04-19T03:20:33.145Z,5.30
2023-04-19T03:23:01.150Z,5.30
2023-04-19T03:25:30.527Z,5.20
2023-04-19T03:27:58.573Z,5.10
2023-04-19T03:30:26.689Z,5.10
2023-04-19T03:32:54.754Z,5.10
2023-04-19T03:35:26.276Z,5.00
2023-04-19T03:37:54.321Z,5.00
2023-04-19T03:40:22.785Z,4.90
2023-04-19T03:42:52.146Z,5.00
2023-04-19T03:45:20.398Z,4.90
2023-04-19T03:47:48.380Z,4.90
2023-04-19T03:50:16.411Z,4.80
2023-04-19T03:52:44.405Z,6.20
2023-04-19T03:55:14.092Z,4.60
2023-04-19T03:57:42.233Z,4.70
2023-04-19T04:00:13.225Z,4.60
2023-04-19T04:02:41.411Z,4.50
2023-04-19T04:05:09.805Z,4.40
2023-04-19T04:07:37.816Z,4.30
2023-04-19T04:10:06.693Z,4.90
2023-04-19T04:12:35.705Z,4.10
2023-04-19T04:15:05.709Z,5.10
2023-04-19T04:17:38.186Z,4.00
2023-04-19T04:20:09.020Z,3.90
2023-04-19T04:22:37.710Z,3.90
2023-04-19T04:25:06.729Z,3.90
2023-04-19T04:27:34.698Z,3.80
2023-04-19T04:30:02.829Z,3.80
2023-04-19T04:32:31.151Z,3.80
2023-04-19T04:35:00.552Z,3.80
2023-04-19T04:37:28.522Z,3.70
2023-04-19T04:39:56.477Z,3.70
2023-04-19T04:42:24.494Z,4.90
2023-04-19T04:44:52.522Z,3.80
2023-04-19T04:47:21.722Z,3.70
2023-04-19T04:49:49.745Z,3.70
2023-04-19T04:52:19.208Z,3.70
2023-04-19T04:54:47.223Z,3.60
2023-04-19T04:57:15.883Z,4.50
2023-04-19T04:59:43.927Z,3.60
2023-04-19T05:02:11.978Z,3.50
2023-04-19T05:04:40.003Z,3.80
2023-04-19T05:07:08.107Z,3.80
2023-04-19T05:09:37.661Z,3.80
2023-04-19T05:12:06.303Z,3.80
2023-04-19T05:14:34.213Z,3.80
2023-04-19T05:17:02.117Z,4.20
2023-04-19T05:19:30.157Z,3.80
2023-04-19T05:21:58.146Z,3.80
2023-04-19T05:24:26.075Z,3.80
2023-04-19T05:26:55.471Z,4.50
2023-04-19T05:29:23.394Z,3.90
2023-04-19T05:31:51.591Z,4.00
2023-04-19T05:34:22.037Z,4.00
2023-04-19T05:36:50.346Z,4.20
2023-04-19T05:39:18.270Z,4.30
2023-04-19T05:41:46.252Z,4.50
2023-04-19T05:44:15.856Z,4.60
2023-04-19T05:46:44.005Z,4.80
2023-04-19T05:49:12.001Z,5.00
2023-04-19T05:51:39.919Z,5.30
2023-04-19T05:54:12.428Z,5.40
2023-04-19T05:56:40.494Z,5.60
2023-04-19T05:59:08.492Z,6.60
2023-04-19T06:01:38.064Z,5.90
2023-04-19T06:04:06.310Z,6.10
2023-04-19T06:06:34.426Z,6.20
2023-04-19T06:09:02.458Z,6.30
2023-04-19T06:11:38.976Z,6.60
2023-04-19T06:14:12.333Z,8.20
2023-04-19T06:16:42.029Z,6.70
2023-04-19T06:19:10.010Z,6.80
2023-04-19T06:21:37.965Z,7.00
2023-04-19T06:24:07.557Z,8.30
2023-04-19T06:26:35.599Z,7.10
2023-04-19T06:29:03.591Z,7.10
2023-04-19T06:31:31.720Z,7.20
2023-04-19T06:34:01.134Z,7.20
2023-04-19T06:36:29.117Z,7.20
2023-04-19T06:38:57.116Z,7.20
2023-04-19T06:41:25.109Z,7.30
2023-04-19T06:43:53.138Z,8.60
2023-04-19T06:46:21.227Z,7.60
2023-04-19T06:48:49.219Z,7.60
2023-04-19T06:51:18.669Z,7.70
2023-04-19T06:53:46.548Z,8.00
2023-04-19T06:56:15.413Z,8.20
2023-04-19T06:58:43.329Z,9.60
2023-04-19T07:01:12.018Z,8.60
2023-04-19T07:03:40.101Z,8.70
2023-04-19T07:06:08.563Z,8.90
2023-04-19T07:08:49.079Z,9.00
2023-04-19T07:11:18.859Z,9.20
2023-04-19T07:13:47.667Z,10.10
2023-04-19T07:16:15.880Z,9.40
2023-04-19T07:18:44.411Z,10.10
2023-04-19T07:21:12.425Z,9.90
2023-04-19T07:23:41.905Z,10.80
2023-04-19T07:26:10.166Z,11.60
2023-04-19T07:28:40.480Z,11.20
2023-04-19T07:31:08.706Z,10.80
2023-04-19T07:33:37.011Z,11.60
2023-04-19T07:36:06.548Z,12.60
2023-04-19T07:38:34.668Z,10.30
2023-04-19T07:41:04.317Z,10.60
2023-04-19T07:43:32.372Z,10.80
2023-04-19T07:46:00.503Z,10.70
2023-04-19T07:48:28.548Z,10.70
2023-04-19T07:50:56.670Z,12.60
2023-04-19T07:53:24.728Z,10.90
2023-04-19T07:55:52.890Z,10.70
2023-04-19T07:58:22.283Z,11.00
2023-04-19T08:00:50.264Z,10.90
2023-04-19T08:03:18.564Z,12.00
2023-04-19T08:05:46.969Z,10.90
2023-04-19T08:08:15.012Z,10.70
2023-04-19T08:10:43.149Z,11.10
2023-04-19T08:13:11.272Z,12.30
2023-04-19T08:18:11.594Z,10.40
2023-04-19T08:20:42.482Z,12.00
2023-04-19T08:23:21.610Z,10.30
2023-04-19T08:25:52.493Z,10.90
2023-04-19T08:28:20.583Z,10.10
2023-04-19T08:30:50.353Z,10.20
2023-04-19T08:33:18.387Z,12.00
2023-04-19T08:35:46.475Z,11.00
2023-04-19T08:38:14.452Z,10.00
2023-04-19T08:40:47.662Z,9.90
2023-04-19T08:43:17.078Z,10.10
2023-04-19T08:45:49.552Z,10.20
2023-04-19T08:48:18.509Z,9.70
2023-04-19T08:51:03.570Z,9.80
2023-04-19T08:53:34.716Z,9.50
2023-04-19T09:01:12.897Z,9.20
2023-04-19T09:04:00.504Z,9.20
2023-04-19T09:06:37.380Z,9.30
2023-04-19T09:09:33.084Z,9.30
2023-04-19T09:12:17.339Z,9.30
2023-04-19T09:14:59.757Z,9.30
2023-04-19T09:17:29.772Z,9.40
2023-04-19T09:19:58.162Z,9.50
2023-04-19T09:22:26.443Z,9.50
2023-04-19T09:25:32.241Z,10.20
2023-04-19T09:27:42.460Z,9.50
2023-04-19T09:30:17.633Z,9.50
2023-04-19T09:32:53.744Z,9.60
2023-04-19T09:35:21.686Z,10.50
2023-04-19T09:38:06.405Z,9.70
2023-04-19T09:40:34.913Z,9.60
2023-04-19T09:45:43.010Z,9.60
2023-04-19T09:48:13.216Z,9.60
2023-04-19T09:50:59.057Z,9.50
2023-04-19T09:53:34.166Z,9.40
2023-04-19T09:56:04.274Z,9.40
2023-04-19T09:58:46.895Z,9.40
2023-04-19T10:01:19.912Z,9.30
2023-04-19T10:03:52.174Z,9.30
2023-04-19T10:08:55.866Z,9.30
2023-04-19T10:11:25.222Z,9.30
2023-04-19T10:13:58.047Z,9.20
2023-04-19T10:16:27.402Z,9.20
2023-04-19T10:18:58.009Z,9.20
2023-04-19T10:21:28.871Z,9.20
2023-04-19T10:23:57.673Z,9.30
2023-04-19T10:26:25.839Z,9.70
2023-04-19T10:28:55.755Z,9.20
2023-04-19T10:31:25.824Z,9.20
2023-04-19T10:33:54.184Z,9.30
2023-04-19T10:36:24.021Z,9.00
2023-04-19T10:38:53.961Z,9.10
2023-04-19T10:41:22.934Z,9.10
2023-04-19T10:44:13.475Z,8.90
2023-04-19T10:46:41.671Z,9.00
2023-04-19T10:49:13.625Z,9.20
2023-04-19T10:51:53.016Z,10.30
2023-04-19T10:54:32.637Z,11.30
2023-04-19T10:57:02.938Z,10.00
2023-04-19T10:59:32.042Z,9.40
2023-04-19T11:02:01.978Z,10.30
2023-04-19T11:05:11.539Z,11.10
2023-04-19T11:07:42.470Z,8.90
2023-04-19T11:10:12.476Z,9.20
2023-04-19T11:12:44.930Z,10.60
2023-04-19T11:15:13.087Z,10.80
2023-04-19T11:17:42.775Z,8.30
2023-04-19T11:20:13.569Z,10.10
2023-04-19T11:22:49.182Z,8.20
2023-04-19T11:25:19.362Z,8.20
2023-04-19T11:27:49.150Z,10.20
2023-04-19T11:30:22.898Z,8.60
2023-04-19T11:32:53.768Z,8.30
2023-04-19T11:35:22.868Z,8.30
2023-04-19T11:37:53.041Z,8.30
2023-04-19T11:40:22.394Z,8.90
2023-04-19T11:42:56.401Z,8.40
2023-04-19T11:45:33.194Z,8.40
2023-04-19T11:48:05.415Z,8.50
2023-04-19T11:50:35.685Z,8.80
2023-04-19T11:53:16.509Z,10.00
2023-04-19T11:55:48.998Z,8.30
2023-04-19T11:58:32.390Z,8.30
2023-04-19T12:01:07.032Z,8.60
2023-04-19T12:03:35.702Z,8.10
2023-04-19T12:06:09.035Z,10.10
2023-04-19T12:08:40.003Z,8.10
2023-04-19T12:11:08.342Z,9.70
2023-04-19T12:13:37.669Z,8.20
2023-04-19T12:16:06.191Z,8.10
2023-04-19T12:18:49.247Z,7.80
2023-04-19T12:21:31.699Z,7.70
2023-04-19T12:24:03.619Z,7.80
2023-04-19T12:26:35.153Z,7.50
2023-04-19T12:29:04.615Z,8.60
2023-04-19T12:31:33.864Z,9.40
2023-04-19T12:34:05.002Z,8.30
2023-04-19T12:36:33.091Z,8.50
2023-04-19T12:39:03.184Z,6.90
2023-04-19T12:41:31.620Z,8.70
2023-04-19T12:43:59.726Z,7.20
2023-04-19T12:46:29.231Z,8.80
2023-04-19T12:48:58.439Z,8.00
2023-04-19T12:51:28.269Z,8.70
2023-04-19T12:53:56.454Z,7.80
2023-04-19T12:56:27.089Z,6.90
2023-04-19T12:58:55.568Z,5.40
2023-04-19T13:01:23.802Z,7.50
2023-04-19T13:03:52.218Z,9.10
2023-04-19T13:06:20.835Z,9.20
2023-04-19T13:08:48.938Z,7.10
2023-04-19T13:11:22.820Z,7.00
2023-04-19T13:13:55.640Z,7.10
2023-04-19T13:16:23.869Z,7.10
2023-04-19T13:18:52.566Z,7.10
2023-04-19T13:21:20.988Z,7.10
2023-04-19T13:23:49.083Z,7.10
2023-04-19T13:26:17.223Z,7.20
2023-04-19T13:28:45.617Z,7.80
2023-04-19T13:31:15.293Z,7.30
2023-04-19T13:33:43.540Z,8.90
2023-04-19T13:36:11.755Z,7.70
2023-04-19T13:38:39.956Z,7.70
2023-04-19T13:41:08.141Z,8.10
2023-04-19T13:43:36.172Z,7.40
2023-04-19T13:46:04.362Z,8.10
2023-04-19T13:48:34.051Z,7.90
2023-04-19T13:51:02.314Z,9.60
2023-04-19T13:53:33.629Z,7.40
2023-04-19T13:56:02.000Z,8.90
2023-04-19T13:58:30.162Z,9.60
2023-04-19T14:00:58.364Z,9.10
2023-04-19T14:03:27.249Z,9.70
2023-04-19T14:05:57.070Z,9.70
2023-04-19T14:08:25.357Z,7.90
2023-04-19T14:10:53.591Z,9.00
2023-04-19T14:13:21.974Z,8.90
2023-04-19T14:15:50.219Z,6.40
2023-04-19T14:18:18.302Z,9.70
2023-04-19T14:20:46.712Z,8.60
2023-04-19T14:23:16.454Z,8.50
2023-04-19T14:25:47.992Z,8.60
2023-04-19T14:28:16.221Z,9.40
2023-04-19T14:30:44.594Z,9.40
2023-04-19T14:33:13.849Z,10.20
2023-04-19T14:35:43.433Z,8.40
2023-04-19T14:38:11.583Z,10.10
2023-04-19T14:40:41.112Z,8.60
2023-04-19T14:43:09.605Z,8.60
2023-04-19T14:45:37.813Z,9.50
2023-04-19T14:48:06.666Z,9.70
2023-04-19T14:50:34.781Z,8.60
2023-04-19T14:53:02.900Z,9.90
2023-04-19T14:55:31.047Z,8.60
2023-04-19T14:58:00.630Z,9.40
2023-04-19T15:00:28.868Z,11.00
2023-04-19T15:02:57.368Z,11.10
2023-04-19T15:05:30.540Z,9.40
2023-04-19T15:07:58.726Z,9.20
2023-04-19T15:10:26.751Z,8.90
2023-04-19T15:12:54.793Z,8.90
2023-04-19T15:15:24.414Z,9.00
2023-04-19T15:17:52.725Z,10.10
2023-04-19T15:20:20.982Z,9.50
2023-04-19T15:22:49.021Z,10.70
2023-04-19T15:25:17.110Z,9.50
2023-04-19T15:27:45.077Z,9.30
2023-04-19T15:30:13.787Z,9.40
2023-04-19T15:32:44.692Z,9.20
2023-04-19T15:35:12.910Z,9.50
2023-04-19T15:37:41.277Z,9.30
2023-04-19T15:40:12.673Z,9.30
2023-04-19T15:42:40.816Z,9.10
2023-04-19T15:45:09.912Z,8.90
2023-04-19T15:47:37.957Z,9.00
2023-04-19T15:50:08.396Z,9.20
2023-04-19T15:52:37.335Z,9.20
2023-04-19T15:55:06.050Z,9.30
2023-04-19T15:57:34.156Z,9.30
2023-04-19T16:00:02.119Z,9.10
2023-04-19T16:02:30.318Z,8.80
2023-04-19T16:04:58.525Z,8.60
2023-04-19T16:07:28.062Z,8.70
2023-04-19T16:09:56.075Z,8.50
2023-04-19T16:12:25.706Z,8.70
2023-04-19T16:14:53.746Z,8.40
2023-04-19T16:17:21.812Z,8.60
2023-04-19T16:19:49.774Z,8.40
2023-04-19T16:22:17.684Z,8.60
2023-04-19T16:24:47.415Z,8.60
2023-04-19T16:27:15.429Z,8.50
2023-04-19T16:29:43.406Z,9.20
2023-04-19T16:32:12.529Z,8.40
2023-04-19T16:34:40.690Z,8.20
2023-04-19T16:37:08.741Z,8.50
2023-04-19T16:39:36.792Z,8.30
2023-04-19T16:42:06.241Z,8.30
2023-04-19T16:44:34.216Z,8.10
2023-04-19T16:47:02.192Z,8.10
2023-04-19T16:49:30.312Z,8.10
2023-04-19T16:51:58.286Z,8.80
2023-04-19T16:54:26.312Z,7.90
2023-04-19T16:56:54.222Z,8.00
2023-04-19T16:59:23.684Z,8.00
2023-04-19T17:01:56.262Z,8.10
2023-04-19T17:04:26.567Z,8.10
2023-04-19T17:06:55.620Z,8.00
2023-04-19T17:09:23.592Z,9.70
2023-04-19T17:11:51.873Z,7.90
2023-04-19T17:14:20.134Z,7.70
2023-04-19T17:16:49.483Z,7.80
2023-04-19T17:19:18.061Z,7.70
2023-04-19T17:21:46.712Z,7.60
2023-04-19T17:24:14.904Z,7.60
2023-04-19T17:26:42.842Z,7.50
2023-04-19T17:29:10.920Z,8.60
2023-04-19T17:31:39.177Z,7.40
2023-04-19T17:34:08.796Z,7.50
2023-04-19T17:36:36.700Z,7.90
2023-04-19T17:39:05.604Z,7.20
2023-04-19T17:41:33.710Z,7.10
2023-04-19T17:44:01.710Z,8.20
2023-04-19T17:46:29.631Z,7.00
2023-04-19T17:48:57.626Z,6.90
2023-04-19T17:51:27.015Z,6.80
2023-04-19T17:53:54.977Z,9.30
2023-04-19T17:56:24.175Z,8.70
2023-04-19T17:58:52.112Z,8.90
2023-04-19T18:01:20.091Z,6.80
2023-04-19T18:03:48.287Z,6.80
2023-04-19T18:06:18.598Z,6.70
2023-04-19T18:08:48.031Z,6.70
2023-04-19T18:11:18.112Z,6.60
2023-04-19T18:13:46.123Z,6.90
2023-04-19T18:16:15.701Z,6.50
2023-04-19T18:18:43.766Z,6.30
2023-04-19T18:21:11.761Z,6.20
2023-04-19T18:23:39.785Z,7.00
2023-04-19T18:26:09.132Z,6.10
2023-04-19T18:28:37.645Z,6.00
2023-04-19T18:31:06.669Z,6.00
2023-04-19T18:33:34.713Z,5.90
2023-04-19T18:36:02.738Z,5.80
2023-04-19T18:38:30.752Z,5.70
2023-04-19T18:40:59.302Z,5.80
2023-04-19T18:43:30.841Z,5.70
2023-04-19T18:46:00.263Z,5.70
2023-04-19T18:48:29.475Z,5.70
2023-04-19T18:50:57.931Z,6.00
2023-04-19T18:53:29.502Z,5.70
2023-04-19T18:55:58.520Z,5.70
2023-04-19T18:58:29.444Z,5.70
2023-04-19T19:00:57.883Z,5.60
2023-04-19T19:05:58.520Z,5.60
2023-04-19T19:08:26.897Z,5.70
2023-04-19T19:13:25.902Z,5.70
2023-04-19T19:15:55.267Z,5.60
2023-04-19T19:18:23.415Z,5.70
2023-04-19T19:20:51.711Z,5.60
2023-04-19T19:23:20.392Z,5.70
2023-04-19T19:25:54.095Z,7.00
2023-04-19T19:28:22.556Z,5.70
2023-04-19T19:30:51.362Z,5.70
2023-04-19T19:33:21.296Z,5.70
2023-04-19T19:35:49.252Z,5.60
2023-04-19T19:38:17.454Z,5.60
2023-04-19T19:43:16.371Z,6.90
2023-04-19T19:45:44.480Z,5.50
2023-04-19T19:48:12.538Z,5.50
2023-04-19T19:53:12.899Z,5.40
2023-04-19T19:55:40.836Z,5.30
2023-04-19T20:00:45.881Z,5.30
2023-04-19T20:03:14.634Z,5.20
2023-04-19T20:05:44.390Z,5.20
2023-04-19T20:08:14.290Z,5.10
2023-04-19T20:10:44.053Z,5.00
2023-04-19T20:13:13.265Z,5.00
2023-04-19T20:15:47.131Z,4.90
2023-04-19T20:18:15.286Z,4.80
2023-04-19T20:20:44.599Z,4.70
2023-04-19T20:23:12.599Z,4.60
2023-04-19T20:25:40.530Z,4.50
2023-04-19T20:28:09.401Z,4.50
2023-04-19T20:30:37.632Z,4.90
2023-04-19T20:33:05.757Z,4.30
2023-04-19T20:35:36.432Z,4.20
2023-04-19T20:38:07.879Z,4.10
2023-04-19T20:40:35.900Z,4.10
2023-04-19T20:43:04.330Z,4.00
2023-04-19T20:45:33.422Z,3.90
2023-04-19T20:48:01.577Z,3.90
2023-04-19T20:50:29.656Z,3.80
2023-04-19T20:52:58.316Z,3.80
2023-04-19T20:55:28.127Z,3.70
2023-04-19T20:57:56.230Z,3.50
2023-04-19T21:00:24.889Z,5.50
2023-04-19T21:02:53.813Z,3.30
2023-04-19T21:05:22.160Z,5.60
2023-04-19T21:07:50.189Z,3.20
2023-04-19T21:10:18.320Z,3.20
2023-04-19T21:12:47.726Z,3.80
2023-04-19T21:15:15.797Z,2.90
2023-04-19T21:17:44.431Z,2.90
2023-04-19T21:20:14.344Z,3.00
2023-04-19T21:22:42.725Z,2.70
2023-04-19T21:25:12.309Z,3.80
2023-04-19T21:27:41.353Z,2.70
2023-04-19T21:30:12.097Z,3.00
2023-04-19T21:32:40.269Z,2.60
2023-04-19T21:35:09.032Z,2.50
2023-04-19T21:37:37.365Z,2.40
2023-04-19T21:40:06.206Z,2.40
2023-04-19T21:42:34.248Z,2.40
2023-04-19T21:45:02.328Z,3.50
2023-04-19T21:47:32.056Z,2.20
2023-04-19T21:50:00.235Z,2.10
2023-04-19T21:52:28.264Z,3.90
2023-04-19T21:54:56.267Z,2.00
2023-04-19T21:57:25.168Z,3.40
2023-04-19T21:59:53.246Z,2.30
2023-04-19T22:02:21.289Z,1.80
2023-04-19T22:04:52.438Z,1.70
2023-04-19T22:07:20.734Z,3.40
2023-04-19T22:09:48.661Z,1.70
2023-04-19T22:12:16.618Z,1.60
2023-04-19T22:14:45.329Z,3.20
2023-04-19T22:17:13.343Z,1.50
2023-04-19T22:19:41.280Z,1.60
2023-04-19T22:22:10.708Z,3.00
2023-04-19T22:24:50.035Z,1.40
2023-04-19T22:27:25.377Z,1.30
2023-04-19T22:29:53.769Z,1.30
2023-04-19T22:32:21.971Z,2.90
2023-04-19T22:34:50.595Z,1.20
2023-04-19T22:37:19.911Z,2.00
2023-04-19T22:39:47.924Z,1.30
2023-04-19T22:42:15.876Z,1.30
2023-04-19T22:44:43.856Z,1.30
2023-04-19T22:47:13.166Z,2.60
2023-04-19T22:49:43.050Z,2.30
2023-04-19T22:52:11.818Z,2.50
2023-04-19T22:54:41.637Z,1.20
2023-04-19T22:57:11.109Z,2.90
2023-04-19T22:59:39.098Z,1.10
2023-04-19T23:02:07.043Z,2.00
2023-04-19T23:04:36.061Z,1.10
2023-04-19T23:07:04.260Z,1.00
2023-04-19T23:09:32.303Z,1.00
2023-04-19T23:12:02.081Z,2.20
2023-04-19T23:14:30.077Z,2.30
2023-04-19T23:16:59.097Z,2.70
2023-04-19T23:19:27.149Z,1.00
2023-04-19T23:21:55.116Z,0.80
2023-04-19T23:24:23.086Z,0.80
2023-04-19T23:26:51.144Z,0.80
2023-04-19T23:29:20.567Z,0.70
2023-04-19T23:31:48.620Z,0.70
2023-04-19T23:34:16.667Z,1.10
2023-04-19T23:36:44.616Z,-0.80
2023-04-19T23:39:12.942Z,2.10
2023-04-19T23:41:40.992Z,0.60
2023-04-19T23:44:09.057Z,0.40
2023-04-19T23:46:38.504Z,0.30
2023-04-19T23:49:08.685Z,0.40
2023-04-19T23:51:37.228Z,0.30
2023-04-19T23:54:05.278Z,0.30
2023-04-19T23:56:33.331Z,0.30
2023-04-19T23:59:01.253Z,0.30
